Portada
METAR-TAF:

METAR-TAF

Aeroports :

Vladivostok, Rússia

latitud: 43-07N, longitud: 131-56E, altitud: 184 m

Observació

L'informe es va fer fa 33 minuts, a les 11:30 UTC
Vent 4 kt del Oest/Nord-Oest
Temperatura 1°C
Humitat 51%
Pressió 1008 hPa
Visibilitat 10 km o més

METAR: UHWW 231130Z 29002MPS 9999 NSC 01/M08 Q1008 R25L/0///70 NOSIG RMK QFE755

Hora: 22:03 (12:03 UTC)

Pronòstic

L'informe es va fer fa 1 hora i 3 minuts, a les 11:00 UTC
Pronòstic vàlid del 23 a les 12 UTC al 24 a les 12 UTC
Vent 6 kt del Nord-Oest
Visibilitat 10 km o més
Temporalment
l' 23 a les 12 UTC al 24 a les 10 UTC
Vent 27 kt del Nord-Oest
Núvols disperses a una alçada de 3000 ft, Cumulonimbus.

TAF: UHWW 231100Z 2312/2412 32003MPS 9999 NSC TEMPO 2312/2410 32014MPS SCT030CB

Observacions i pronòstics meteorològics de més de 4000 aeroports (METAR i TAF).

Les estacions disponibles són els punts grocs i vermells al mapa.

Posi el ratolí al punt desitjat per veure el nom de l'estació.

Feu clic per veure les observacions i els pronòstics meteorològics.

Per canviar el mapa: feu clic els botons verds amb una creu de color negre per apropar; al botó verd amb un guió per allunyar la imatge; o en les fletxes verdes per a mapes adjacents.


METAR-TAF: